Time;durP1;ratioP1;P1;durP2;ratioP2;P2;SDS_P1;SDS_P2;PMS_P1;PMS_P2;Temp;Humidity;BMP_temperature;BMP_pressure;BME280_temperature;BME280_humidity;BME280_pressure;Samples;Min_cycle;Max_cycle;Signal;HPM_P1;HPM_P2
2023/07/18 00:01:34;;;;;;;8.10;4.10;;;;;;;;;;5051460;28;20820;-46
2023/07/18 00:04:00;;;;;;;8.03;3.33;;;;;;;;;;5050923;28;20909;-49
2023/07/18 00:06:26;;;;;;;10.70;5.00;;;;;;;;;;5050884;28;20515;-50
2023/07/18 00:08:52;;;;;;;5.57;4.07;;;;;;;;;;5050995;28;20426;-46
2023/07/18 00:11:20;;;;;;;9.03;3.90;;;;;;;;;;5050146;28;20417;-47
2023/07/18 00:13:46;;;;;;;10.27;4.00;;;;;;;;;;5050705;28;20438;-46
2023/07/18 00:16:12;;;;;;;6.30;3.80;;;;;;;;;;5054694;28;20412;-47
2023/07/18 00:18:38;;;;;;;7.70;3.70;;;;;;;;;;5054474;28;20432;-47
2023/07/18 00:21:05;;;;;;;9.77;4.57;;;;;;;;;;5054072;28;20457;-48
2023/07/18 00:23:31;;;;;;;9.77;4.53;;;;;;;;;;5054186;28;20905;-46
2023/07/18 00:25:57;;;;;;;10.97;4.00;;;;;;;;;;5053911;28;20924;-47
2023/07/18 00:28:23;;;;;;;12.03;4.13;;;;;;;;;;5054013;28;20517;-46
2023/07/18 00:30:49;;;;;;;4.40;3.40;;;;;;;;;;5053953;28;20909;-47
2023/07/18 00:33:15;;;;;;;7.40;4.00;;;;;;;;;;5054282;28;20460;-48
2023/07/18 00:35:43;;;;;;;9.83;4.13;;;;;;;;;;5053966;28;20401;-47
2023/07/18 00:38:11;;;;;;;11.60;3.80;;;;;;;;;;5054106;28;20440;-46
2023/07/18 00:40:40;;;;;;;7.13;4.20;;;;;;;;;;5053505;28;20836;-49
2023/07/18 00:43:12;;;;;;;7.80;3.83;;;;;;;;;;5053938;28;20475;-46
2023/07/18 00:45:38;;;;;;;18.70;4.37;;;;;;;;;;5050193;28;20402;-47
2023/07/18 00:48:05;;;;;;;11.03;4.93;;;;;;;;;;5048748;28;20409;-46
2023/07/18 00:50:32;;;;;;;11.50;4.77;;;;;;;;;;5053788;28;20429;-47
2023/07/18 00:53:00;;;;;;;15.40;5.03;;;;;;;;;;5053894;28;20413;-47
2023/07/18 00:55:27;;;;;;;13.73;4.17;;;;;;;;;;5053573;28;20930;-50
2023/07/18 00:57:53;;;;;;;10.53;4.80;;;;;;;;;;5053616;28;20433;-48
2023/07/18 01:00:22;;;;;;;11.40;4.63;;;;;;;;;;5053250;28;20413;-47
2023/07/18 01:02:49;;;;;;;14.70;4.73;;;;;;;;;;5052927;28;20416;-47
2023/07/18 01:05:16;;;;;;;10.87;5.00;;;;;;;;;;5052943;28;20504;-47
2023/07/18 01:07:43;;;;;;;9.50;4.43;;;;;;;;;;5052317;28;20410;-48
2023/07/18 01:10:23;;;;;;;6.53;3.70;;;;;;;;;;5053256;28;20964;-47
2023/07/18 01:12:49;;;;;;;9.63;3.60;;;;;;;;;;5046690;28;20410;-46
2023/07/18 01:15:16;;;;;;;15.60;5.17;;;;;;;;;;5053301;28;20417;-45
2023/07/18 01:17:44;;;;;;;8.27;4.33;;;;;;;;;;5053336;28;20412;-49
2023/07/18 01:20:12;;;;;;;7.00;4.50;;;;;;;;;;5052776;28;20467;-50
2023/07/18 01:22:38;;;;;;;14.60;4.03;;;;;;;;;;5044981;28;20408;-46
2023/07/18 01:25:04;;;;;;;5.60;3.60;;;;;;;;;;5051125;28;20409;-46
2023/07/18 01:27:31;;;;;;;5.57;4.03;;;;;;;;;;5053130;28;20413;-47
2023/07/18 01:29:57;;;;;;;9.67;4.00;;;;;;;;;;5052848;28;20475;-46
2023/07/18 01:32:23;;;;;;;6.20;4.20;;;;;;;;;;5053012;28;20939;-47
2023/07/18 01:34:49;;;;;;;6.13;4.30;;;;;;;;;;5052626;28;20914;-46
2023/07/18 01:37:15;;;;;;;6.43;4.47;;;;;;;;;;5052829;28;20944;-46
2023/07/18 01:39:41;;;;;;;10.83;4.00;;;;;;;;;;5052525;28;20524;-46
2023/07/18 01:42:07;;;;;;;9.17;4.30;;;;;;;;;;5052941;28;20456;-46
2023/07/18 01:44:33;;;;;;;4.27;3.87;;;;;;;;;;5052569;28;20912;-46
2023/07/18 01:47:00;;;;;;;9.23;4.33;;;;;;;;;;5045941;28;20935;-46
2023/07/18 01:49:25;;;;;;;5.00;4.10;;;;;;;;;;5052244;28;20420;-48
2023/07/18 01:51:51;;;;;;;4.80;3.73;;;;;;;;;;5050704;28;20414;-48
2023/07/18 01:54:17;;;;;;;13.30;4.27;;;;;;;;;;5052477;28;20418;-49
2023/07/18 01:56:44;;;;;;;8.77;4.20;;;;;;;;;;5052597;28;20437;-46
2023/07/18 01:59:10;;;;;;;11.63;4.13;;;;;;;;;;5052429;28;20931;-47
2023/07/18 02:01:36;;;;;;;9.83;4.10;;;;;;;;;;5052158;28;20463;-46
2023/07/18 02:04:01;;;;;;;8.07;4.27;;;;;;;;;;5052158;28;20436;-46
2023/07/18 02:06:28;;;;;;;9.00;4.83;;;;;;;;;;5052382;28;20924;-49
2023/07/18 02:08:54;;;;;;;8.27;4.83;;;;;;;;;;5052266;28;20471;-46
2023/07/18 02:11:20;;;;;;;7.20;3.63;;;;;;;;;;5052111;28;20428;-45
2023/07/18 02:13:46;;;;;;;5.53;3.77;;;;;;;;;;5052158;28;20417;-46
2023/07/18 02:16:12;;;;;;;7.20;4.80;;;;;;;;;;5052268;28;20409;-49
2023/07/18 02:18:38;;;;;;;7.40;3.70;;;;;;;;;;5051909;28;20427;-46
2023/07/18 02:21:04;;;;;;;8.70;4.60;;;;;;;;;;5051852;28;20976;-47
2023/07/18 02:23:30;;;;;;;7.40;4.20;;;;;;;;;;5051901;28;20905;-50
2023/07/18 02:25:56;;;;;;;12.20;4.37;;;;;;;;;;5052079;28;20896;-46
2023/07/18 02:28:22;;;;;;;12.43;5.17;;;;;;;;;;5052000;28;20974;-45
2023/07/18 02:30:48;;;;;;;10.57;4.40;;;;;;;;;;5051751;28;20449;-46
2023/07/18 02:33:14;;;;;;;17.20;4.40;;;;;;;;;;5050188;28;20391;-46
2023/07/18 02:35:39;;;;;;;4.73;4.20;;;;;;;;;;5051922;28;20407;-46
2023/07/18 02:38:05;;;;;;;8.90;4.30;;;;;;;;;;5051270;28;20420;-47
2023/07/18 02:40:31;;;;;;;9.80;3.83;;;;;;;;;;5051341;28;20460;-48
2023/07/18 02:42:57;;;;;;;9.83;4.33;;;;;;;;;;5051798;28;20925;-46
2023/07/18 02:45:23;;;;;;;5.97;4.53;;;;;;;;;;5051663;28;20972;-45
2023/07/18 02:47:49;;;;;;;7.07;4.50;;;;;;;;;;5051507;28;20409;-46
2023/07/18 02:50:15;;;;;;;6.60;4.13;;;;;;;;;;5051409;28;20528;-46
2023/07/18 02:52:41;;;;;;;15.23;5.23;;;;;;;;;;5051864;28;20380;-46
2023/07/18 02:55:07;;;;;;;4.13;3.43;;;;;;;;;;5051627;28;20401;-47
2023/07/18 02:57:34;;;;;;;13.67;3.90;;;;;;;;;;5051645;28;20405;-46
2023/07/18 03:00:00;;;;;;;10.50;4.20;;;;;;;;;;5043080;28;20990;-46
2023/07/18 03:02:28;;;;;;;6.97;4.60;;;;;;;;;;5046215;28;20456;-49
2023/07/18 03:04:54;;;;;;;10.67;4.43;;;;;;;;;;5047754;28;20928;-46
2023/07/18 03:07:20;;;;;;;11.90;4.33;;;;;;;;;;5051415;28;20945;-46
2023/07/18 03:09:46;;;;;;;7.10;4.27;;;;;;;;;;5048692;28;20434;-46
2023/07/18 03:12:12;;;;;;;11.80;4.90;;;;;;;;;;5047393;28;20416;-48
2023/07/18 03:14:38;;;;;;;6.70;4.80;;;;;;;;;;5057673;28;20401;-50
2023/07/18 03:17:05;;;;;;;6.67;4.30;;;;;;;;;;5051277;28;20488;-47
2023/07/18 03:19:31;;;;;;;4.33;4.00;;;;;;;;;;5050367;28;20437;-49
2023/07/18 03:21:57;;;;;;;6.60;4.90;;;;;;;;;;5050641;28;20451;-49
2023/07/18 03:24:23;;;;;;;8.47;4.77;;;;;;;;;;5049520;28;20405;-49
2023/07/18 03:26:49;;;;;;;6.80;4.87;;;;;;;;;;5051317;28;20428;-46
2023/07/18 03:29:15;;;;;;;6.50;4.33;;;;;;;;;;5051184;28;20848;-49
2023/07/18 03:31:42;;;;;;;4.20;3.80;;;;;;;;;;5051443;28;20843;-46
2023/07/18 03:34:08;;;;;;;4.60;4.20;;;;;;;;;;5050563;28;20417;-47
2023/07/18 03:36:36;;;;;;;4.80;4.10;;;;;;;;;;5051183;28;20826;-48
2023/07/18 03:39:02;;;;;;;6.83;4.70;;;;;;;;;;5051051;28;20918;-46
2023/07/18 03:41:30;;;;;;;4.40;3.97;;;;;;;;;;5050896;28;20481;-46
2023/07/18 03:43:56;;;;;;;9.23;3.83;;;;;;;;;;5051030;28;20901;-49
2023/07/18 03:46:22;;;;;;;6.90;4.63;;;;;;;;;;5050963;28;20781;-46
2023/07/18 03:48:48;;;;;;;11.67;4.73;;;;;;;;;;5050710;28;20432;-46
2023/07/18 03:51:14;;;;;;;7.67;4.70;;;;;;;;;;5054573;28;20425;-48
2023/07/18 03:53:40;;;;;;;13.13;4.63;;;;;;;;;;5054686;28;20558;-48
2023/07/18 03:56:06;;;;;;;4.20;3.80;;;;;;;;;;5054828;28;20399;-46
2023/07/18 03:58:33;;;;;;;6.30;4.10;;;;;;;;;;5052950;28;21008;-49
2023/07/18 04:00:59;;;;;;;5.60;4.10;;;;;;;;;;5049496;28;20456;-47
2023/07/18 04:03:25;;;;;;;5.37;4.30;;;;;;;;;;5054146;28;20416;-47
2023/07/18 04:05:51;;;;;;;4.47;4.00;;;;;;;;;;5054687;28;20426;-47
2023/07/18 04:08:18;;;;;;;3.90;3.20;;;;;;;;;;5054566;28;20436;-50
2023/07/18 04:10:44;;;;;;;6.27;4.03;;;;;;;;;;5054240;28;20454;-47
2023/07/18 04:13:10;;;;;;;5.97;3.83;;;;;;;;;;5054517;28;20872;-45
2023/07/18 04:15:36;;;;;;;6.33;4.50;;;;;;;;;;5051207;28;20500;-47
2023/07/18 04:18:02;;;;;;;4.47;3.97;;;;;;;;;;5054365;28;20416;-48
2023/07/18 04:20:28;;;;;;;6.57;4.13;;;;;;;;;;5054143;28;20933;-51
2023/07/18 04:22:55;;;;;;;12.40;4.03;;;;;;;;;;5048564;28;20452;-46
2023/07/18 04:25:21;;;;;;;8.73;3.67;;;;;;;;;;5050600;28;20496;-48
2023/07/18 04:27:47;;;;;;;7.10;4.40;;;;;;;;;;5054077;28;20488;-48
2023/07/18 04:30:14;;;;;;;7.50;4.00;;;;;;;;;;5054019;28;20396;-48
2023/07/18 04:32:42;;;;;;;4.03;3.57;;;;;;;;;;5054480;28;20940;-46
2023/07/18 04:35:08;;;;;;;6.70;4.07;;;;;;;;;;5054083;28;20413;-48
2023/07/18 04:37:34;;;;;;;4.37;3.73;;;;;;;;;;5054065;28;20797;-47
2023/07/18 04:40:00;;;;;;;3.47;3.17;;;;;;;;;;5052184;28;20433;-47
2023/07/18 04:42:26;;;;;;;6.53;4.07;;;;;;;;;;5053571;28;21006;-49
2023/07/18 04:44:53;;;;;;;9.73;4.10;;;;;;;;;;5054065;28;20401;-46
2023/07/18 04:47:20;;;;;;;9.13;4.40;;;;;;;;;;5051393;28;20405;-46
2023/07/18 04:49:46;;;;;;;8.53;4.10;;;;;;;;;;5053480;28;20554;-46
2023/07/18 04:52:12;;;;;;;6.97;3.80;;;;;;;;;;5053886;28;20912;-47
2023/07/18 04:54:38;;;;;;;8.97;3.70;;;;;;;;;;5051979;28;20911;-47
2023/07/18 04:57:04;;;;;;;4.33;3.87;;;;;;;;;;5053658;28;20406;-46
2023/07/18 04:59:30;;;;;;;5.30;4.33;;;;;;;;;;5053281;28;20856;-46
2023/07/18 05:01:56;;;;;;;4.37;3.60;;;;;;;;;;5053030;28;20519;-47
2023/07/18 05:04:22;;;;;;;5.70;4.20;;;;;;;;;;5053453;28;20536;-47
2023/07/18 05:06:48;;;;;;;10.70;4.73;;;;;;;;;;5053668;28;20450;-49
2023/07/18 05:09:15;;;;;;;7.23;4.37;;;;;;;;;;5052066;28;20439;-50
2023/07/18 05:11:41;;;;;;;3.20;2.80;;;;;;;;;;5053128;28;20424;-46
2023/07/18 05:14:07;;;;;;;4.20;3.80;;;;;;;;;;5053447;28;20425;-49
2023/07/18 05:16:33;;;;;;;6.97;3.50;;;;;;;;;;5053452;28;20425;-45
2023/07/18 05:18:59;;;;;;;8.83;3.93;;;;;;;;;;5053178;28;20444;-47
2023/07/18 05:21:25;;;;;;;5.63;3.50;;;;;;;;;;5051609;28;20957;-46
2023/07/18 05:23:51;;;;;;;6.43;3.83;;;;;;;;;;5053243;28;20405;-47
2023/07/18 05:26:17;;;;;;;8.70;3.80;;;;;;;;;;5050278;28;20405;-46
2023/07/18 05:28:43;;;;;;;4.80;3.80;;;;;;;;;;5052954;28;20443;-46
2023/07/18 05:31:09;;;;;;;6.03;3.47;;;;;;;;;;5052612;28;20417;-46
2023/07/18 05:33:35;;;;;;;6.70;3.80;;;;;;;;;;5052517;28;21042;-46
2023/07/18 05:36:01;;;;;;;16.97;4.40;;;;;;;;;;5051264;28;20409;-46
2023/07/18 05:38:27;;;;;;;7.43;3.40;;;;;;;;;;5052370;28;20805;-48
2023/07/18 05:40:53;;;;;;;4.00;3.27;;;;;;;;;;5051872;28;20532;-46
2023/07/18 05:43:19;;;;;;;3.93;3.50;;;;;;;;;;5052368;28;20405;-46
2023/07/18 05:45:45;;;;;;;5.70;4.00;;;;;;;;;;5052169;28;20408;-50
2023/07/18 05:48:11;;;;;;;5.70;4.03;;;;;;;;;;5043321;28;20954;-46
2023/07/18 05:50:38;;;;;;;7.40;3.60;;;;;;;;;;5051944;28;20782;-49
2023/07/18 05:53:04;;;;;;;4.47;3.30;;;;;;;;;;5051250;28;20818;-48
2023/07/18 05:55:30;;;;;;;5.80;3.47;;;;;;;;;;5050550;28;20409;-49
2023/07/18 05:57:56;;;;;;;4.03;3.23;;;;;;;;;;5052119;28;20966;-45
2023/07/18 06:00:22;;;;;;;4.50;3.20;;;;;;;;;;5051122;28;20845;-48
2023/07/18 06:02:48;;;;;;;5.23;3.30;;;;;;;;;;5052132;28;20750;-50
2023/07/18 06:05:16;;;;;;;4.13;3.50;;;;;;;;;;5051169;28;20424;-51
2023/07/18 06:07:42;;;;;;;4.40;3.73;;;;;;;;;;5052439;28;20416;-50
2023/07/18 06:10:08;;;;;;;4.90;3.67;;;;;;;;;;5051927;28;20521;-49
2023/07/18 06:12:35;;;;;;;4.30;3.43;;;;;;;;;;5051522;28;20785;-51
2023/07/18 06:15:01;;;;;;;3.80;2.87;;;;;;;;;;5052384;28;20431;-51
2023/07/18 06:17:27;;;;;;;5.10;4.00;;;;;;;;;;5051214;28;20914;-50
2023/07/18 06:19:53;;;;;;;4.87;3.47;;;;;;;;;;5051796;28;20807;-51
2023/07/18 06:22:19;;;;;;;4.30;3.90;;;;;;;;;;5052139;28;20504;-50
2023/07/18 06:24:47;;;;;;;6.20;3.83;;;;;;;;;;5051927;28;20406;-50
2023/07/18 06:27:13;;;;;;;7.20;3.90;;;;;;;;;;5051857;28;20409;-50
2023/07/18 06:29:38;;;;;;;9.93;3.00;;;;;;;;;;5044218;28;20436;-51
2023/07/18 06:32:05;;;;;;;6.63;4.27;;;;;;;;;;5051131;28;20413;-51
2023/07/18 06:34:33;;;;;;;6.20;3.60;;;;;;;;;;5051825;28;20743;-52
2023/07/18 06:37:02;;;;;;;8.00;3.10;;;;;;;;;;5051878;28;20409;-50
2023/07/18 06:39:29;;;;;;;4.30;3.23;;;;;;;;;;5051590;28;20440;-50
2023/07/18 06:41:56;;;;;;;3.73;3.20;;;;;;;;;;5045940;28;20457;-51
2023/07/18 06:44:22;;;;;;;9.20;4.10;;;;;;;;;;5051712;28;20422;-51
2023/07/18 06:46:48;;;;;;;7.33;3.30;;;;;;;;;;5051819;28;20789;-50
2023/07/18 06:49:15;;;;;;;4.40;3.33;;;;;;;;;;5051488;28;20528;-51
2023/07/18 06:51:41;;;;;;;3.37;3.07;;;;;;;;;;5051559;28;20407;-50
2023/07/18 06:54:07;;;;;;;3.90;3.03;;;;;;;;;;5045326;28;20495;-51
2023/07/18 06:56:32;;;;;;;3.13;2.83;;;;;;;;;;5051550;28;20514;-52
2023/07/18 06:58:58;;;;;;;5.00;3.00;;;;;;;;;;5048654;28;20439;-51
2023/07/18 07:01:24;;;;;;;9.27;3.50;;;;;;;;;;5046114;28;20464;-50
2023/07/18 07:03:50;;;;;;;3.80;2.80;;;;;;;;;;5051835;28;20410;-49
2023/07/18 07:06:18;;;;;;;6.80;4.00;;;;;;;;;;5051311;28;20439;-50
2023/07/18 07:08:44;;;;;;;3.60;2.73;;;;;;;;;;5051598;28;20428;-50
2023/07/18 07:11:10;;;;;;;3.60;2.80;;;;;;;;;;5051345;28;20474;-51
2023/07/18 07:13:36;;;;;;;4.70;3.30;;;;;;;;;;5050582;28;20447;-51
2023/07/18 07:16:03;;;;;;;3.83;2.40;;;;;;;;;;5050655;28;20414;-50
2023/07/18 07:18:29;;;;;;;3.37;3.07;;;;;;;;;;5051320;28;20474;-51
2023/07/18 07:20:55;;;;;;;4.63;3.00;;;;;;;;;;5050845;28;20471;-48
2023/07/18 07:23:21;;;;;;;5.23;3.70;;;;;;;;;;5052383;28;20413;-51
2023/07/18 07:25:48;;;;;;;3.00;2.80;;;;;;;;;;5055426;28;20411;-50
2023/07/18 07:28:13;;;;;;;4.87;3.07;;;;;;;;;;5054386;28;20891;-51
2023/07/18 07:30:40;;;;;;;4.47;3.20;;;;;;;;;;5055244;28;20412;-51
2023/07/18 07:33:06;;;;;;;2.30;2.20;;;;;;;;;;5055266;28;20414;-51
2023/07/18 07:35:32;;;;;;;5.73;3.00;;;;;;;;;;5055110;28;20376;-50
2023/07/18 07:37:58;;;;;;;5.43;3.37;;;;;;;;;;5055481;28;20413;-51
2023/07/18 07:40:24;;;;;;;4.13;2.77;;;;;;;;;;5054857;28;20392;-51
2023/07/18 07:42:51;;;;;;;3.90;3.03;;;;;;;;;;5054334;28;20777;-51
2023/07/18 07:45:18;;;;;;;4.40;3.27;;;;;;;;;;5054897;28;20437;-50
2023/07/18 07:47:44;;;;;;;7.77;2.60;;;;;;;;;;5050985;28;20409;-50
2023/07/18 07:50:12;;;;;;;5.10;2.63;;;;;;;;;;5054207;28;20465;-49
2023/07/18 07:52:38;;;;;;;4.30;2.53;;;;;;;;;;5046912;28;20530;-49
2023/07/18 07:55:04;;;;;;;3.37;2.80;;;;;;;;;;5054832;28;20408;-51
2023/07/18 07:57:30;;;;;;;3.47;2.77;;;;;;;;;;5054075;28;20405;-51
2023/07/18 07:59:56;;;;;;;4.20;2.77;;;;;;;;;;5054581;28;20487;-51
2023/07/18 08:02:22;;;;;;;3.03;2.77;;;;;;;;;;5054615;28;20464;-51
2023/07/18 08:04:49;;;;;;;5.30;2.87;;;;;;;;;;5048849;28;20378;-51
2023/07/18 08:07:15;;;;;;;6.90;3.17;;;;;;;;;;5048596;28;20483;-50
2023/07/18 08:09:41;;;;;;;2.80;2.60;;;;;;;;;;5053671;28;20439;-49
2023/07/18 08:12:07;;;;;;;3.33;2.70;;;;;;;;;;5051752;28;20398;-50
2023/07/18 08:14:37;;;;;;;4.03;3.10;;;;;;;;;;5052948;28;20384;-51
2023/07/18 08:17:03;;;;;;;2.57;2.47;;;;;;;;;;5050754;28;20453;-51
2023/07/18 08:19:32;;;;;;;11.93;2.77;;;;;;;;;;5053329;28;20450;-51
2023/07/18 08:21:58;;;;;;;7.70;2.50;;;;;;;;;;5054268;28;20432;-51
2023/07/18 08:24:25;;;;;;;3.60;2.50;;;;;;;;;;5053582;28;20513;-52
2023/07/18 08:26:51;;;;;;;8.73;2.37;;;;;;;;;;5052147;28;20416;-50
2023/07/18 08:29:17;;;;;;;3.40;2.40;;;;;;;;;;5054014;28;20516;-49
2023/07/18 08:31:43;;;;;;;2.03;1.80;;;;;;;;;;5053072;28;20405;-51
2023/07/18 08:34:09;;;;;;;2.53;2.10;;;;;;;;;;5054228;28;20432;-52
2023/07/18 08:36:36;;;;;;;6.27;2.10;;;;;;;;;;5052937;28;20446;-52
2023/07/18 08:39:02;;;;;;;2.90;1.90;;;;;;;;;;5053283;28;20425;-50
2023/07/18 08:41:28;;;;;;;4.10;1.97;;;;;;;;;;5053676;28;20957;-50
2023/07/18 08:43:55;;;;;;;3.87;2.07;;;;;;;;;;5054405;28;20415;-52
2023/07/18 08:46:21;;;;;;;6.27;2.00;;;;;;;;;;5053799;28;20416;-50
2023/07/18 08:48:51;;;;;;;2.60;1.80;;;;;;;;;;5053789;28;20475;-51
2023/07/18 08:51:17;;;;;;;1.97;1.67;;;;;;;;;;5052975;28;20953;-51
2023/07/18 08:53:43;;;;;;;4.00;1.90;;;;;;;;;;5053786;28;20511;-49
2023/07/18 08:56:09;;;;;;;1.93;1.83;;;;;;;;;;5053746;28;20901;-52
2023/07/18 08:58:38;;;;;;;2.53;1.40;;;;;;;;;;5053578;28;20924;-52
2023/07/18 09:01:04;;;;;;;3.97;1.50;;;;;;;;;;5053275;28;20456;-50
2023/07/18 09:03:32;;;;;;;2.90;2.00;;;;;;;;;;5053503;28;20972;-50
2023/07/18 09:06:02;;;;;;;2.60;1.70;;;;;;;;;;5053166;28;20413;-52
2023/07/18 09:08:29;;;;;;;2.10;1.60;;;;;;;;;;5053381;28;20429;-51
2023/07/18 09:11:02;;;;;;;1.63;1.53;;;;;;;;;;5053225;28;20413;-50
2023/07/18 09:13:29;;;;;;;3.07;1.50;;;;;;;;;;5052208;28;20421;-52
2023/07/18 09:15:55;;;;;;;2.50;1.60;;;;;;;;;;5053671;28;20575;-51
2023/07/18 09:18:22;;;;;;;3.10;1.80;;;;;;;;;;5053327;28;20963;-52
2023/07/18 09:20:48;;;;;;;4.33;1.70;;;;;;;;;;5039417;28;20528;-52
2023/07/18 09:23:14;;;;;;;97.90;8.60;;;;;;;;;;5043921;28;20786;-52
2023/07/18 09:25:40;;;;;;;5.03;1.50;;;;;;;;;;5053170;28;20856;-52
2023/07/18 09:28:10;;;;;;;2.87;1.30;;;;;;;;;;5052988;28;20445;-51
2023/07/18 09:30:37;;;;;;;2.33;1.80;;;;;;;;;;5053077;28;20402;-52
2023/07/18 09:33:04;;;;;;;2.10;1.90;;;;;;;;;;5053190;28;20401;-50
2023/07/18 09:35:30;;;;;;;15.50;2.90;;;;;;;;;;5053139;28;20861;-52
2023/07/18 09:37:56;;;;;;;2.30;1.70;;;;;;;;;;5053316;28;20413;-50
2023/07/18 09:40:22;;;;;;;4.23;1.90;;;;;;;;;;5052661;28;20417;-49
2023/07/18 09:42:50;;;;;;;1.80;1.70;;;;;;;;;;5052709;28;20860;-51
2023/07/18 09:45:16;;;;;;;4.20;2.03;;;;;;;;;;5052774;28;20413;-52
2023/07/18 09:47:43;;;;;;;2.60;1.63;;;;;;;;;;5052780;28;20441;-51
2023/07/18 09:50:12;;;;;;;2.70;1.90;;;;;;;;;;5052485;28;20484;-52
2023/07/18 09:52:40;;;;;;;3.63;1.87;;;;;;;;;;5052761;28;20490;-52
2023/07/18 09:55:12;;;;;;;3.10;1.60;;;;;;;;;;5052467;28;20940;-52
2023/07/18 09:57:40;;;;;;;2.50;1.50;;;;;;;;;;5052649;28;20421;-52
2023/07/18 10:00:09;;;;;;;1.90;1.70;;;;;;;;;;5048674;28;20527;-50
2023/07/18 10:02:35;;;;;;;1.90;1.57;;;;;;;;;;5050897;28;20463;-51
2023/07/18 10:05:02;;;;;;;2.10;1.90;;;;;;;;;;5047238;28;20932;-52
2023/07/18 10:07:29;;;;;;;2.10;1.90;;;;;;;;;;5053430;28;20463;-49
2023/07/18 10:09:55;;;;;;;1.60;1.50;;;;;;;;;;5045418;28;20849;-52
2023/07/18 10:12:21;;;;;;;9.77;2.40;;;;;;;;;;5050865;28;20409;-52
2023/07/18 10:14:49;;;;;;;2.27;1.53;;;;;;;;;;5044722;28;20941;-52
2023/07/18 10:17:33;;;;;;;6.30;1.93;;;;;;;;;;5044987;28;20472;-52
2023/07/18 10:20:01;;;;;;;2.97;1.67;;;;;;;;;;5041082;28;20457;-52
2023/07/18 10:22:28;;;;;;;2.80;2.17;;;;;;;;;;5045812;28;20495;-51
2023/07/18 10:24:58;;;;;;;15.53;3.93;;;;;;;;;;5043637;28;20485;-52
2023/07/18 10:27:34;;;;;;;3.60;1.90;;;;;;;;;;5040905;28;20897;-50
2023/07/18 10:30:09;;;;;;;2.30;1.30;;;;;;;;;;5050590;28;20428;-52
2023/07/18 10:32:36;;;;;;;2.27;1.50;;;;;;;;;;5049329;28;20412;-51
2023/07/18 10:35:06;;;;;;;2.30;1.70;;;;;;;;;;5051811;28;20406;-52
2023/07/18 10:37:32;;;;;;;2.40;1.63;;;;;;;;;;5051992;28;20409;-52
2023/07/18 10:39:59;;;;;;;2.93;1.97;;;;;;;;;;5051532;28;20474;-51
2023/07/18 10:42:29;;;;;;;3.83;2.07;;;;;;;;;;5051636;28;20955;-50
2023/07/18 10:44:59;;;;;;;2.20;2.10;;;;;;;;;;5051665;28;20459;-52
2023/07/18 10:47:25;;;;;;;2.00;1.80;;;;;;;;;;5049987;28;20405;-51
2023/07/18 10:49:53;;;;;;;3.20;2.00;;;;;;;;;;5051476;28;20534;-52
2023/07/18 10:52:20;;;;;;;8.53;2.43;;;;;;;;;;5051775;28;20424;-51
2023/07/18 10:54:54;;;;;;;3.30;2.30;;;;;;;;;;5051264;28;20425;-51
2023/07/18 10:57:33;;;;;;;10.60;2.70;;;;;;;;;;5051492;28;20417;-52
2023/07/18 11:00:01;;;;;;;3.13;1.90;;;;;;;;;;5051140;28;20425;-51
2023/07/18 11:02:28;;;;;;;3.50;2.40;;;;;;;;;;5050150;28;20460;-52
2023/07/18 11:04:54;;;;;;;3.00;2.03;;;;;;;;;;5051563;28;20936;-52
2023/07/18 11:07:31;;;;;;;2.03;1.83;;;;;;;;;;5051690;28;20413;-52
2023/07/18 11:09:58;;;;;;;11.63;2.57;;;;;;;;;;5051184;28;20455;-49
2023/07/18 11:12:24;;;;;;;2.97;1.93;;;;;;;;;;5051444;28;20421;-51
2023/07/18 11:14:50;;;;;;;2.80;2.00;;;;;;;;;;5051435;28;20417;-52
2023/07/18 11:17:18;;;;;;;2.37;1.90;;;;;;;;;;5051401;28;20432;-51
2023/07/18 11:19:45;;;;;;;4.40;2.50;;;;;;;;;;5050937;28;20799;-52
2023/07/18 11:22:13;;;;;;;3.70;2.30;;;;;;;;;;5051544;28;20607;-51
2023/07/18 11:24:39;;;;;;;2.90;2.37;;;;;;;;;;5051278;28;20539;-50
2023/07/18 11:27:19;;;;;;;2.70;2.20;;;;;;;;;;5051419;28;20413;-51
2023/07/18 11:30:04;;;;;;;2.40;2.07;;;;;;;;;;5045508;28;20428;-52
2023/07/18 11:32:48;;;;;;;5.30;2.00;;;;;;;;;;5050784;28;20444;-51
2023/07/18 11:35:21;;;;;;;2.70;1.90;;;;;;;;;;5051252;28;20918;-52
2023/07/18 11:37:52;;;;;;;2.33;2.13;;;;;;;;;;5051730;28;20437;-52
2023/07/18 11:40:21;;;;;;;3.50;2.80;;;;;;;;;;5050840;28;20412;-52
2023/07/18 11:42:51;;;;;;;3.87;2.33;;;;;;;;;;5049478;28;21075;-51
2023/07/18 11:45:18;;;;;;;4.23;2.10;;;;;;;;;;5051091;28;20795;-52
2023/07/18 11:47:45;;;;;;;2.40;2.10;;;;;;;;;;5050150;28;20401;-52
2023/07/18 11:50:13;;;;;;;4.70;2.37;;;;;;;;;;5047025;28;20965;-49
2023/07/18 11:52:40;;;;;;;4.07;1.70;;;;;;;;;;5049568;28;20409;-50
2023/07/18 11:55:06;;;;;;;5.03;2.13;;;;;;;;;;5051045;28;20460;-50
2023/07/18 11:57:32;;;;;;;2.40;2.20;;;;;;;;;;5049414;28;20421;-51
2023/07/18 11:59:58;;;;;;;3.70;2.30;;;;;;;;;;5050404;28;20444;-51
2023/07/18 12:02:24;;;;;;;3.30;2.20;;;;;;;;;;5051370;28;20453;-50
2023/07/18 12:04:50;;;;;;;4.10;2.07;;;;;;;;;;5050736;28;20409;-49
2023/07/18 12:07:18;;;;;;;2.37;2.17;;;;;;;;;;5050909;28;20412;-46
2023/07/18 12:09:45;;;;;;;3.27;2.27;;;;;;;;;;5050626;28;20921;-46
2023/07/18 12:12:11;;;;;;;2.50;2.27;;;;;;;;;;5053115;28;20413;-48
2023/07/18 12:14:37;;;;;;;7.00;2.30;;;;;;;;;;5054432;28;20415;-51
2023/07/18 12:17:04;;;;;;;2.13;2.00;;;;;;;;;;5054140;28;20412;-46
2023/07/18 12:19:30;;;;;;;3.30;2.33;;;;;;;;;;5053877;28;20954;-50
2023/07/18 12:22:13;;;;;;;2.27;2.07;;;;;;;;;;5048338;28;20551;-48
2023/07/18 12:24:40;;;;;;;2.93;2.23;;;;;;;;;;5046220;28;20990;-47
2023/07/18 12:27:06;;;;;;;3.37;2.50;;;;;;;;;;5054666;28;20409;-51
2023/07/18 12:29:32;;;;;;;4.03;2.10;;;;;;;;;;5054309;28;20483;-47
2023/07/18 12:31:58;;;;;;;4.90;2.07;;;;;;;;;;5054115;28;20417;-47
2023/07/18 12:34:24;;;;;;;4.07;2.30;;;;;;;;;;5047462;28;20821;-47
2023/07/18 12:36:50;;;;;;;2.73;2.13;;;;;;;;;;5052783;28;20508;-49
2023/07/18 12:39:17;;;;;;;3.10;2.40;;;;;;;;;;5052057;28;20551;-47
2023/07/18 12:41:43;;;;;;;4.27;2.40;;;;;;;;;;5053667;28;20453;-47
2023/07/18 12:44:14;;;;;;;3.63;2.30;;;;;;;;;;5053385;28;20496;-47
2023/07/18 12:46:40;;;;;;;2.57;2.00;;;;;;;;;;5048770;28;20401;-47
2023/07/18 12:49:07;;;;;;;3.67;2.10;;;;;;;;;;5053548;28;20936;-47
2023/07/18 12:51:33;;;;;;;4.00;2.67;;;;;;;;;;5053560;28;20417;-48
2023/07/18 12:53:59;;;;;;;3.17;2.43;;;;;;;;;;5052278;28;20413;-47
2023/07/18 12:56:25;;;;;;;5.87;2.10;;;;;;;;;;5053814;28;20425;-50
2023/07/18 12:58:51;;;;;;;5.67;2.10;;;;;;;;;;5053420;28;20433;-48
2023/07/18 13:01:17;;;;;;;3.77;2.97;;;;;;;;;;5053120;28;20464;-50
2023/07/18 13:03:43;;;;;;;4.20;2.47;;;;;;;;;;5049680;28;20422;-50
2023/07/18 13:06:09;;;;;;;3.20;2.07;;;;;;;;;;5048863;28;20923;-47
2023/07/18 13:08:36;;;;;;;2.97;2.33;;;;;;;;;;5053238;28;20562;-48
2023/07/18 13:11:04;;;;;;;2.57;2.00;;;;;;;;;;5053276;28;20414;-49
2023/07/18 13:13:30;;;;;;;6.40;2.27;;;;;;;;;;5053212;28;20413;-47
2023/07/18 13:15:56;;;;;;;2.30;2.10;;;;;;;;;;5053391;28;20413;-47
2023/07/18 13:18:22;;;;;;;3.70;2.00;;;;;;;;;;5053188;28;20437;-47
2023/07/18 13:20:48;;;;;;;4.87;3.33;;;;;;;;;;5051384;28;20406;-47
2023/07/18 13:23:14;;;;;;;1.90;1.80;;;;;;;;;;5053140;28;20475;-48
2023/07/18 13:25:40;;;;;;;2.20;1.80;;;;;;;;;;5053135;28;20455;-50
2023/07/18 13:28:06;;;;;;;3.23;2.00;;;;;;;;;;5053048;28;20401;-49
2023/07/18 13:30:32;;;;;;;5.67;2.47;;;;;;;;;;5052809;28;20405;-49
2023/07/18 13:32:58;;;;;;;7.50;2.57;;;;;;;;;;5052986;28;20417;-47
2023/07/18 13:35:24;;;;;;;4.10;2.23;;;;;;;;;;5051701;28;20500;-47
2023/07/18 13:37:49;;;;;;;4.60;2.20;;;;;;;;;;5052900;28;20183;-47
2023/07/18 13:40:15;;;;;;;2.80;2.30;;;;;;;;;;5048159;28;20483;-48
2023/07/18 13:42:43;;;;;;;2.27;2.07;;;;;;;;;;5052672;28;20499;-48
2023/07/18 13:45:10;;;;;;;2.93;2.07;;;;;;;;;;5052777;28;20711;-47
2023/07/18 13:47:36;;;;;;;3.60;2.03;;;;;;;;;;5045088;28;20894;-47
2023/07/18 13:50:02;;;;;;;2.63;2.40;;;;;;;;;;5051058;28;20441;-47
2023/07/18 13:52:30;;;;;;;6.20;2.37;;;;;;;;;;5052741;28;20191;-49
2023/07/18 13:54:56;;;;;;;2.90;2.30;;;;;;;;;;5052590;28;20409;-51
2023/07/18 13:57:22;;;;;;;4.13;2.67;;;;;;;;;;5052388;28;20417;-48
2023/07/18 13:59:48;;;;;;;4.40;2.40;;;;;;;;;;5052254;28;20968;-47
2023/07/18 14:02:14;;;;;;;3.90;2.63;;;;;;;;;;5051166;28;20457;-48
2023/07/18 14:04:40;;;;;;;7.03;2.40;;;;;;;;;;5052519;28;20918;-47
2023/07/18 14:07:07;;;;;;;3.20;2.43;;;;;;;;;;5052391;28;20490;-47
2023/07/18 14:09:33;;;;;;;2.43;2.20;;;;;;;;;;5052239;28;20437;-50
2023/07/18 14:12:01;;;;;;;3.70;2.30;;;;;;;;;;5052108;28;20415;-48
2023/07/18 14:14:27;;;;;;;3.83;2.23;;;;;;;;;;5052139;28;20820;-47
2023/07/18 14:16:53;;;;;;;4.80;2.33;;;;;;;;;;5051161;28;20417;-47
2023/07/18 14:19:19;;;;;;;5.30;2.10;;;;;;;;;;5052030;28;20807;-47
2023/07/18 14:21:45;;;;;;;2.60;2.27;;;;;;;;;;5051808;28;20503;-49
2023/07/18 14:24:12;;;;;;;3.37;2.93;;;;;;;;;;5052114;28;20398;-48
2023/07/18 14:26:38;;;;;;;4.07;1.93;;;;;;;;;;5052156;28;20413;-47
2023/07/18 14:29:04;;;;;;;8.10;2.43;;;;;;;;;;5051923;28;20490;-47
2023/07/18 14:31:30;;;;;;;2.90;2.30;;;;;;;;;;5050576;28;20432;-47
2023/07/18 14:33:56;;;;;;;3.83;2.53;;;;;;;;;;5051202;28;20417;-47
2023/07/18 14:36:23;;;;;;;2.50;2.20;;;;;;;;;;5051891;28;20414;-47
2023/07/18 14:38:49;;;;;;;2.17;2.00;;;;;;;;;;5051635;28;20528;-51